Chandler, Arizona
Current Conditions -  °F | °C
As of 6:47 AM on Friday 28 Nov 2014 (Local Time) from KCHD Reporting Station
Clear Clear  
Wind Chill: 45°   Ceiling: Unl
Heat Index: 45°   Visibility: 15mi
Dew Point: 30°   Wind: 0mph
Humidity: 57%   Direction: NA
Pressure: 30.06"   Gusts: NA
Location:  33.3°N, 111.84°W
Report Text: KCHD 281347Z 00000KT 15SM SKC 07/M01 A3006
Loading
Personal Weather Stations






























Interactive Weather Map New forecast layout! Learn more

10-Day Weather Forecast

Advertisements
Track Severe Weather on mobile